Time;durP1;ratioP1;P1;durP2;ratioP2;P2;SDS_P1;SDS_P2;PMS_P1;PMS_P2;Temp;Humidity;BMP_temperature;BMP_pressure;BME280_temperature;BME280_humidity;BME280_pressure;Samples;Min_cycle;Max_cycle;Signal;HPM_P1;HPM_P2
2021/01/13 00:00:32;;;;;;;20.32;13.62;;;;;;;-2.09;71.48;98963.73;1694441;83;21311;-58
2021/01/13 00:03:00;;;;;;;24.05;15.18;;;;;;;-2.08;71.54;98969.34;1699376;83;21721;-57
2021/01/13 00:05:28;;;;;;;17.25;11.73;;;;;;;-2.07;71.59;98971.00;1694010;83;21339;-58
2021/01/13 00:07:56;;;;;;;22.52;13.35;;;;;;;-2.08;71.18;98975.51;1716323;83;21304;-58
2021/01/13 00:10:25;;;;;;;20.02;11.85;;;;;;;-2.05;71.28;98975.59;1682923;85;21709;-58
2021/01/13 00:12:53;;;;;;;17.25;10.85;;;;;;;-2.03;71.25;98973.55;1684717;85;21295;-58
2021/01/13 00:15:21;;;;;;;24.60;15.28;;;;;;;-2.06;71.08;98960.13;1706552;84;21344;-58
2021/01/13 00:17:49;;;;;;;18.42;12.35;;;;;;;-2.08;71.18;98959.51;1692692;83;21142;-58
2021/01/13 00:20:18;;;;;;;19.25;11.40;;;;;;;-2.10;71.12;98957.58;1691125;84;21392;-58
2021/01/13 00:22:46;;;;;;;23.10;14.20;;;;;;;-2.08;71.00;98952.84;1683622;84;21174;-58
2021/01/13 00:25:16;;;;;;;22.02;12.65;;;;;;;-2.07;71.01;98947.00;1702977;84;21189;-58
2021/01/13 00:27:46;;;;;;;20.60;12.63;;;;;;;-2.04;70.99;98947.91;1668715;84;21174;-58
2021/01/13 00:30:15;;;;;;;17.45;12.00;;;;;;;-2.07;70.84;98945.66;1687750;84;21296;-58
2021/01/13 00:32:44;;;;;;;20.55;12.82;;;;;;;-2.11;70.94;98937.77;1638145;86;21317;-58
2021/01/13 00:35:16;;;;;;;23.45;13.78;;;;;;;-2.11;71.03;98930.59;1648161;86;21309;-59
2021/01/13 00:37:45;;;;;;;21.33;14.53;;;;;;;-2.13;71.04;98918.00;1618484;87;21334;-58
2021/01/13 00:40:14;;;;;;;24.27;15.72;;;;;;;-2.08;71.18;98920.02;1651063;86;21296;-58
2021/01/13 00:42:47;;;;;;;27.75;16.27;;;;;;;-2.12;70.99;98917.45;1652883;85;21141;-58
2021/01/13 00:45:17;;;;;;;23.92;13.83;;;;;;;-2.10;70.95;98914.09;1642627;86;21161;-58
2021/01/13 00:47:51;;;;;;;29.65;16.75;;;;;;;-2.10;70.98;98908.75;1648974;86;21307;-58
2021/01/13 00:50:19;;;;;;;31.70;18.17;;;;;;;-2.07;71.06;98911.00;1657654;86;21296;-58
2021/01/13 00:52:49;;;;;;;33.40;19.02;;;;;;;-2.03;70.90;98903.70;1645101;86;21178;-58
2021/01/13 00:55:17;;;;;;;33.15;20.20;;;;;;;-1.99;70.73;98908.61;1647140;86;21657;-58
2021/01/13 00:57:49;;;;;;;34.45;19.25;;;;;;;-2.01;70.95;98898.14;1642281;86;21150;-58
2021/01/13 01:00:18;;;;;;;37.03;23.15;;;;;;;-2.04;70.89;98896.72;1660272;85;21201;-58
2021/01/13 01:02:48;;;;;;;37.03;21.80;;;;;;;-2.11;70.92;98891.93;1643079;87;21201;-59
2021/01/13 01:05:17;;;;;;;36.68;21.73;;;;;;;-2.09;71.12;98882.40;1657442;86;21295;-58
2021/01/13 01:07:45;;;;;;;39.73;22.73;;;;;;;-2.12;71.34;98888.13;1658217;86;21157;-58
2021/01/13 01:10:20;;;;;;;38.20;23.18;;;;;;;-2.09;71.27;98890.40;1628562;86;21165;-59
2021/01/13 01:12:48;;;;;;;33.83;20.12;;;;;;;-2.09;71.33;98894.40;1664266;86;21311;-58
2021/01/13 01:15:16;;;;;;;35.35;21.00;;;;;;;-2.04;71.08;98905.23;1662007;85;21189;-58
2021/01/13 01:17:46;;;;;;;35.78;22.00;;;;;;;-2.03;71.12;98899.70;1645116;86;21299;-58
2021/01/13 01:20:14;;;;;;;36.10;22.22;;;;;;;-2.04;71.17;98890.05;1669628;86;21138;-58
2021/01/13 01:22:57;;;;;;;40.50;23.75;;;;;;;-2.04;71.09;98900.72;1647987;86;21334;-58
2021/01/13 01:25:26;;;;;;;36.70;21.35;;;;;;;-2.04;71.34;98890.56;1664116;85;21155;-58
2021/01/13 01:27:56;;;;;;;40.00;22.48;;;;;;;-1.98;71.10;98884.92;1659579;86;21307;-58
2021/01/13 01:30:26;;;;;;;37.28;22.02;;;;;;;-2.00;71.18;98887.78;1655660;85;21164;-59
2021/01/13 01:32:54;;;;;;;38.58;23.47;;;;;;;-2.02;70.87;98881.31;1673247;85;21174;-59
2021/01/13 01:35:23;;;;;;;33.83;20.05;;;;;;;-2.04;70.95;98875.89;1669336;85;21336;-58
2021/01/13 01:37:53;;;;;;;45.60;25.75;;;;;;;-2.05;71.09;98866.25;1672923;85;21170;-58
2021/01/13 01:40:22;;;;;;;37.85;21.65;;;;;;;-2.05;71.27;98855.08;1662631;86;21206;-58
2021/01/13 01:42:54;;;;;;;37.05;22.60;;;;;;;-1.99;71.05;98845.94;1669349;85;21134;-58
2021/01/13 01:45:28;;;;;;;41.37;25.02;;;;;;;-2.03;71.08;98849.03;1678566;85;21337;-58
2021/01/13 01:48:11;;;;;;;40.43;23.90;;;;;;;-2.01;71.10;98842.95;1669312;85;22143;-58
2021/01/13 01:50:43;;;;;;;40.60;23.67;;;;;;;-2.00;71.06;98837.11;1655650;86;21335;-58
2021/01/13 01:53:21;;;;;;;39.95;23.15;;;;;;;-1.94;71.15;98830.09;1640508;86;21317;-58
2021/01/13 01:56:01;;;;;;;37.55;21.55;;;;;;;-1.94;70.98;98821.58;1670746;85;21215;-58
2021/01/13 01:58:32;;;;;;;42.38;25.40;;;;;;;-1.94;71.03;98820.75;1663522;85;21162;-58
2021/01/13 02:01:01;;;;;;;40.67;24.10;;;;;;;-1.93;71.25;98827.73;1606962;86;21154;-58
2021/01/13 02:03:46;;;;;;;41.65;25.50;;;;;;;-1.96;71.30;98824.16;1662211;85;21736;-60
2021/01/13 02:06:18;;;;;;;39.78;24.90;;;;;;;-1.95;71.32;98814.63;1670578;85;21787;-59
2021/01/13 02:08:47;;;;;;;40.63;23.57;;;;;;;-1.95;71.38;98815.96;1646285;86;21310;-58
2021/01/13 02:11:18;;;;;;;41.40;24.20;;;;;;;-1.88;71.47;98814.08;1652000;86;21205;-58
2021/01/13 02:13:47;;;;;;;40.05;24.12;;;;;;;-1.88;71.32;98815.41;1647535;85;21169;-59
2021/01/13 02:16:17;;;;;;;46.40;23.92;;;;;;;-1.89;71.42;98815.61;1612253;87;21351;-58
2021/01/13 02:18:46;;;;;;;35.85;22.80;;;;;;;-1.87;71.23;98815.69;1658246;86;21780;-58
2021/01/13 02:21:21;;;;;;;37.48;21.93;;;;;;;-1.89;71.33;98808.94;1662701;85;21145;-59
2021/01/13 02:24:12;;;;;;;40.78;23.55;;;;;;;-1.97;71.38;98798.52;1657598;85;21179;-58
2021/01/13 02:27:31;;;;;;;38.48;24.30;;;;;;;-1.99;71.66;98797.92;1676723;85;21335;-58
2021/01/13 02:30:00;;;;;;;40.45;23.05;;;;;;;-2.05;71.88;98783.58;1647833;86;21620;-58
2021/01/13 02:32:32;;;;;;;37.65;23.57;;;;;;;-2.07;72.17;98773.66;1655114;84;21339;-58
2021/01/13 02:35:20;;;;;;;40.12;23.42;;;;;;;-2.07;72.29;98779.81;1669923;85;21304;-58
2021/01/13 02:38:03;;;;;;;36.23;21.52;;;;;;;-2.10;72.48;98782.91;1636125;86;21351;-58
2021/01/13 02:40:32;;;;;;;36.93;22.37;;;;;;;-2.17;72.63;98779.97;1639945;86;21335;-57
2021/01/13 02:43:09;;;;;;;35.90;21.30;;;;;;;-2.21;72.93;98768.91;1639015;86;21213;-57
2021/01/13 02:45:43;;;;;;;34.13;19.85;;;;;;;-2.21;72.91;98757.43;1641583;87;21336;-57
2021/01/13 02:48:13;;;;;;;31.95;17.85;;;;;;;-2.16;72.90;98759.74;1640132;87;21295;-58
2021/01/13 02:50:54;;;;;;;27.75;16.23;;;;;;;-2.19;73.03;98761.51;1664501;86;21315;-58
2021/01/13 02:53:33;;;;;;;26.25;15.68;;;;;;;-2.15;72.82;98762.72;1652493;85;21321;-58
2021/01/13 02:56:18;;;;;;;21.05;13.13;;;;;;;-2.10;72.78;98754.09;1642934;87;21209;-59
2021/01/13 02:58:46;;;;;;;23.98;13.50;;;;;;;-2.12;72.70;98748.13;1664334;86;21323;-58
2021/01/13 03:01:15;;;;;;;23.35;13.70;;;;;;;-2.12;72.67;98745.47;1637814;85;21311;-58
2021/01/13 03:03:44;;;;;;;18.95;12.78;;;;;;;-2.11;72.52;98740.44;1668233;85;21608;-58
2021/01/13 03:06:12;;;;;;;17.50;11.70;;;;;;;-2.08;71.99;98742.67;1673007;85;21189;-58
2021/01/13 03:09:06;;;;;;;18.30;13.10;;;;;;;-2.12;71.70;98746.80;1641014;87;21194;-58
2021/01/13 03:11:35;;;;;;;16.80;11.00;;;;;;;-2.16;71.34;98746.95;1654049;85;21186;-60
2021/01/13 03:14:16;;;;;;;19.23;12.40;;;;;;;-2.16;71.37;98737.63;1639568;86;21181;-59
2021/01/13 03:16:57;;;;;;;20.45;13.03;;;;;;;-2.20;71.02;98747.08;1643375;86;21413;-59
2021/01/13 03:20:02;;;;;;;17.85;12.25;;;;;;;-2.28;71.03;98746.80;1666459;86;21170;-59
2021/01/13 03:22:34;;;;;;;19.35;12.53;;;;;;;-2.27;71.14;98743.63;1628403;86;21204;-59
2021/01/13 03:25:05;;;;;;;19.75;12.75;;;;;;;-2.30;71.28;98743.52;1651111;86;21142;-60
2021/01/13 03:27:34;;;;;;;18.98;11.65;;;;;;;-2.37;71.41;98735.28;1667159;85;21169;-60
2021/01/13 03:30:06;;;;;;;20.32;12.82;;;;;;;-2.31;71.29;98743.75;1662355;85;21185;-60
2021/01/13 03:33:00;;;;;;;21.80;12.40;;;;;;;-2.34;70.82;98740.18;1661665;85;21362;-60
2021/01/13 03:35:43;;;;;;;19.57;11.68;;;;;;;-2.36;70.69;98732.89;1679000;84;21179;-60
2021/01/13 03:38:18;;;;;;;19.85;12.95;;;;;;;-2.38;70.83;98731.80;1680822;84;21236;-57
2021/01/13 03:40:48;;;;;;;19.00;12.05;;;;;;;-2.38;70.77;98724.31;1694690;84;21160;-58
2021/01/13 03:43:21;;;;;;;23.57;12.58;;;;;;;-2.41;70.57;98722.08;1713076;83;21308;-59
2021/01/13 03:45:54;;;;;;;19.23;12.37;;;;;;;-2.41;70.39;98719.41;1688828;84;21636;-58
2021/01/13 03:48:48;;;;;;;19.00;12.47;;;;;;;-2.48;70.45;98714.12;1674863;85;21330;-59
2021/01/13 03:51:36;;;;;;;19.30;11.38;;;;;;;-2.47;70.83;98706.91;1692654;85;21293;-58
2021/01/13 03:54:04;;;;;;;;;;;;;;;-2.52;70.96;98702.24;1699403;83;21122;-58
2021/01/13 03:56:56;;;;;;;21.27;11.12;;;;;;;-2.57;70.81;98698.88;1691507;83;20170;-58
2021/01/13 03:59:39;;;;;;;18.77;11.85;;;;;;;-2.56;70.95;98703.70;1688206;85;21174;-58
2021/01/13 04:02:07;;;;;;;18.95;11.65;;;;;;;-2.56;70.89;98687.71;1682150;84;21177;-59
2021/01/13 04:05:10;;;;;;;19.40;11.80;;;;;;;-2.59;70.86;98676.97;1690360;84;21205;-58
2021/01/13 04:07:38;;;;;;;18.87;11.70;;;;;;;-2.54;70.82;98677.13;1703408;83;21157;-59
2021/01/13 04:10:13;;;;;;;20.40;12.70;;;;;;;-2.55;70.82;98676.82;1721344;83;21185;-58
2021/01/13 04:12:57;;;;;;;17.55;11.78;;;;;;;-2.56;70.67;98676.54;1676341;85;21331;-58
2021/01/13 04:15:47;;;;;;;21.45;11.97;;;;;;;-2.57;70.52;98678.89;1690727;84;21822;-58
2021/01/13 04:18:16;;;;;;;22.20;12.80;;;;;;;-2.56;70.52;98675.20;1707260;84;21348;-58
2021/01/13 04:20:44;;;;;;;21.30;13.18;;;;;;;-2.59;70.57;98676.97;1673845;84;21127;-58
2021/01/13 04:23:13;;;;;;;19.40;11.83;;;;;;;-2.59;70.44;98684.97;1742355;81;21130;-58
2021/01/13 04:25:41;;;;;;;24.02;13.80;;;;;;;-2.57;70.26;98685.55;1736282;81;21177;-59
2021/01/13 04:28:10;;;;;;;22.90;13.55;;;;;;;-2.57;70.50;98692.73;1722181;83;21163;-59
2021/01/13 04:30:39;;;;;;;21.50;13.53;;;;;;;-2.57;70.55;98679.41;1750439;81;21220;-58
2021/01/13 04:33:08;;;;;;;24.05;14.60;;;;;;;-2.59;70.50;98680.97;1777262;80;21129;-58
2021/01/13 04:35:37;;;;;;;19.48;12.40;;;;;;;-2.57;70.65;98676.73;1789083;80;21689;-58
2021/01/13 04:38:05;;;;;;;21.57;12.50;;;;;;;-2.59;70.45;98669.48;1782366;80;21694;-58
2021/01/13 04:43:12;;;;;;;20.82;12.95;;;;;;;-2.59;70.60;98663.65;1807761;77;22844;-58
2021/01/13 04:45:44;;;;;;;22.00;13.25;;;;;;;-2.62;70.54;98671.22;1786170;80;21338;-58
2021/01/13 04:48:15;;;;;;;22.82;13.95;;;;;;;-2.79;70.82;98637.61;1755103;80;21145;-59
2021/01/13 04:50:49;;;;;;;26.50;13.88;;;;;;;-2.61;70.83;98668.36;1722188;83;21146;-59
2021/01/13 04:53:21;;;;;;;29.40;16.12;;;;;;;-2.60;71.03;98667.34;1695100;83;21305;-58
2021/01/13 04:55:55;;;;;;;30.37;16.55;;;;;;;-2.59;71.11;98666.31;1715341;81;21200;-59
2021/01/13 04:58:58;;;;;;;28.32;15.50;;;;;;;-2.56;71.36;98665.06;1723837;81;21161;-58
2021/01/13 05:02:06;;;;;;;26.52;15.43;;;;;;;-2.63;71.27;98656.29;1706982;83;21182;-59
2021/01/13 05:05:03;;;;;;;21.87;14.00;;;;;;;-2.65;71.39;98653.82;1703994;81;21173;-58
2021/01/13 05:07:40;;;;;;;21.50;12.53;;;;;;;-2.66;71.17;98642.86;1716557;81;21227;-58
2021/01/13 05:10:15;;;;;;;23.27;13.90;;;;;;;-2.71;71.13;98641.36;1717568;83;21299;-58
2021/01/13 05:12:55;;;;;;;23.05;14.83;;;;;;;-2.68;71.39;98644.92;1725089;83;21161;-59
2021/01/13 05:15:28;;;;;;;26.17;16.23;;;;;;;-2.64;71.43;98640.81;1726491;81;21336;-58
2021/01/13 05:18:11;;;;;;;25.40;16.77;;;;;;;-2.61;71.46;98636.89;1722245;81;21818;-58
2021/01/13 05:20:43;;;;;;;23.62;16.30;;;;;;;-2.57;71.48;98629.59;1698396;84;21258;-59
2021/01/13 05:23:12;;;;;;;24.18;15.32;;;;;;;-2.54;71.41;98634.50;1719450;81;21306;-60
2021/01/13 05:25:45;;;;;;;26.45;16.48;;;;;;;-2.57;71.40;98633.59;1719173;83;21157;-59
2021/01/13 05:28:23;;;;;;;24.52;15.30;;;;;;;-2.58;71.36;98631.95;1722340;81;21273;-59
2021/01/13 05:30:54;;;;;;;27.87;16.57;;;;;;;-2.58;71.34;98637.28;1712672;81;21728;-60
2021/01/13 05:33:33;;;;;;;29.60;17.70;;;;;;;-2.61;71.36;98640.89;1726697;83;21178;-58
2021/01/13 05:36:04;;;;;;;29.32;17.77;;;;;;;-2.62;71.50;98643.25;1688376;83;21125;-58
2021/01/13 05:39:06;;;;;;;109.63;43.50;;;;;;;-2.63;71.67;98641.12;1690916;83;21319;-58
2021/01/13 05:41:41;;;;;;;39.35;21.35;;;;;;;-2.62;71.84;98640.58;1717620;83;21227;-58
2021/01/13 05:44:10;;;;;;;130.03;56.37;;;;;;;-2.64;72.02;98640.81;1705939;84;21296;-58
2021/01/13 05:46:47;;;;;;;47.53;25.75;;;;;;;-2.66;72.18;98644.73;1690193;84;21213;-58
2021/01/13 05:49:15;;;;;;;44.45;26.17;;;;;;;-2.64;72.26;98642.66;1710360;84;21299;-58
2021/01/13 05:51:44;;;;;;;37.10;23.75;;;;;;;-2.61;72.12;98643.55;1706114;84;21771;-58
2021/01/13 05:54:17;;;;;;;39.20;25.30;;;;;;;-2.57;72.29;98646.09;1760584;80;21722;-58
2021/01/13 05:56:48;;;;;;;30.72;20.08;;;;;;;-2.56;72.34;98644.56;1736063;82;21122;-58
2021/01/13 05:59:17;;;;;;;31.45;19.40;;;;;;;-2.53;72.44;98637.47;1683583;83;21293;-58
2021/01/13 06:01:58;;;;;;;30.95;19.40;;;;;;;-2.49;72.40;98634.38;1730881;82;21163;-58
2021/01/13 06:04:28;;;;;;;30.37;18.20;;;;;;;-2.48;72.55;98640.83;1741266;82;21173;-58
2021/01/13 06:07:18;;;;;;;30.82;19.17;;;;;;;-2.47;72.68;98636.29;1742700;81;21350;-58
2021/01/13 06:09:47;;;;;;;31.50;19.10;;;;;;;-2.41;72.63;98634.95;1735817;82;21173;-58
2021/01/13 06:12:18;;;;;;;28.38;18.20;;;;;;;-2.41;72.75;98630.13;1696616;84;21175;-58
2021/01/13 06:14:54;;;;;;;29.52;18.57;;;;;;;-2.45;72.56;98625.73;1741004;82;21657;-58
2021/01/13 06:17:24;;;;;;;31.75;17.67;;;;;;;-2.43;72.62;98630.84;1720884;82;21360;-58
2021/01/13 06:19:56;;;;;;;26.10;16.97;;;;;;;-2.45;72.69;98627.58;1718599;82;21169;-58
2021/01/13 06:22:32;;;;;;;28.92;16.62;;;;;;;-2.47;72.78;98624.30;1730210;82;21284;-59
2021/01/13 06:25:04;;;;;;;26.55;16.77;;;;;;;-2.53;72.66;98620.66;1746681;82;21148;-58
2021/01/13 06:28:07;;;;;;;27.77;17.62;;;;;;;-2.55;72.88;98623.53;1739083;81;21554;-58
2021/01/13 06:30:42;;;;;;;28.73;18.02;;;;;;;-2.55;72.90;98622.19;1740636;80;21126;-58
2021/01/13 06:33:23;;;;;;;30.27;17.30;;;;;;;-2.55;73.02;98616.86;1716527;81;21227;-58
2021/01/13 06:36:29;;;;;;;33.35;18.98;;;;;;;-2.54;73.12;98622.50;1743208;80;21133;-57
2021/01/13 06:39:01;;;;;;;36.68;20.72;;;;;;;-2.62;72.81;98612.61;1741981;82;21185;-58
2021/01/13 06:41:29;;;;;;;32.88;18.25;;;;;;;-2.64;72.94;98621.34;1708114;84;21774;-58
2021/01/13 06:44:06;;;;;;;32.95;18.37;;;;;;;-2.63;73.10;98613.14;1747054;82;21621;-58
2021/01/13 06:46:35;;;;;;;33.75;19.50;;;;;;;-2.59;73.09;98613.02;1743987;80;21207;-58
2021/01/13 06:49:18;;;;;;;30.40;18.17;;;;;;;-2.53;73.02;98610.83;1739143;82;21724;-58
2021/01/13 06:51:51;;;;;;;29.82;17.95;;;;;;;-2.49;72.99;98610.39;1738717;80;21157;-58
2021/01/13 06:54:20;;;;;;;22.10;14.45;;;;;;;-2.44;72.43;98603.36;1724757;82;21280;-58
2021/01/13 06:56:58;;;;;;;27.87;17.55;;;;;;;-2.40;72.09;98593.91;1717263;83;21319;-58
2021/01/13 06:59:26;;;;;;;26.12;17.07;;;;;;;-2.45;71.46;98603.59;1717444;83;21153;-58
2021/01/13 07:02:01;;;;;;;24.85;15.08;;;;;;;-2.45;71.59;98609.75;1743775;80;21206;-58
2021/01/13 07:04:29;;;;;;;24.98;15.30;;;;;;;-2.41;71.65;98602.96;1738686;80;21260;-58
2021/01/13 07:07:06;;;;;;;28.55;17.10;;;;;;;-2.42;71.50;98599.98;1740877;82;21166;-58
2021/01/13 07:09:43;;;;;;;26.62;17.23;;;;;;;-2.35;71.28;98594.61;1741106;82;21173;-58
2021/01/13 07:12:17;;;;;;;30.65;17.92;;;;;;;-2.30;71.29;98595.57;1733399;80;21179;-58
2021/01/13 07:14:52;;;;;;;30.08;17.73;;;;;;;-2.28;71.18;98596.70;1738840;80;21327;-58
2021/01/13 07:17:22;;;;;;;30.10;18.27;;;;;;;-2.23;70.89;98595.00;1750766;80;21305;-57
2021/01/13 07:19:54;;;;;;;33.85;20.15;;;;;;;-2.18;70.83;98590.36;1730140;82;21664;-59
2021/01/13 07:22:25;;;;;;;29.25;18.42;;;;;;;-2.15;70.66;98591.25;1685012;82;21162;-58
2021/01/13 07:24:54;;;;;;;32.25;19.12;;;;;;;-2.12;70.66;98588.14;1671515;85;21146;-58
2021/01/13 07:27:23;;;;;;;31.60;19.42;;;;;;;-2.07;70.52;98587.81;1693186;84;21270;-58
2021/01/13 07:29:51;;;;;;;30.52;20.02;;;;;;;-2.05;70.20;98592.91;1698461;84;21159;-58
2021/01/13 07:32:23;;;;;;;28.23;17.80;;;;;;;-2.03;70.19;98594.86;1669479;84;21143;-58
2021/01/13 07:34:54;;;;;;;29.30;18.27;;;;;;;-2.01;69.80;98588.77;1698988;84;21167;-58
2021/01/13 07:37:24;;;;;;;28.15;18.15;;;;;;;-1.97;69.90;98589.15;1687662;84;21669;-58
2021/01/13 07:40:25;;;;;;;28.80;18.82;;;;;;;-1.96;69.70;98589.45;1677205;83;21199;-59
2021/01/13 07:43:06;;;;;;;31.90;19.37;;;;;;;-2.01;69.33;98584.25;1687257;83;21134;-58
2021/01/13 07:45:44;;;;;;;28.95;19.27;;;;;;;-2.04;69.64;98583.87;1695923;84;21193;-57
2021/01/13 07:48:33;;;;;;;27.40;17.42;;;;;;;-2.05;69.49;98575.06;1769481;80;21814;-58
2021/01/13 07:51:10;;;;;;;28.47;19.07;;;;;;;-2.08;69.21;98567.50;1724847;83;21658;-58
2021/01/13 07:53:38;;;;;;;27.87;17.57;;;;;;;-2.13;69.40;98566.02;1747136;80;21153;-59
2021/01/13 07:56:10;;;;;;;25.72;17.55;;;;;;;-2.14;69.38;98562.23;1748904;80;21169;-58
2021/01/13 07:58:37;;;;;;;30.02;19.50;;;;;;;-2.10;69.24;98558.09;1734987;80;21356;-58
2021/01/13 08:01:17;;;;;;;30.00;20.23;;;;;;;-2.07;69.57;98553.66;1721603;80;21155;-58
2021/01/13 08:04:30;;;;;;;32.17;17.95;;;;;;;-2.10;69.18;98554.09;1749609;81;21695;-58
2021/01/13 08:06:59;;;;;;;35.55;20.50;;;;;;;-2.08;69.66;98538.69;1733705;80;21311;-58
2021/01/13 08:09:27;;;;;;;33.25;20.60;;;;;;;-2.06;69.89;98539.30;1719121;83;21172;-58
2021/01/13 08:12:10;;;;;;;40.25;21.55;;;;;;;-2.04;69.52;98540.70;1738721;80;21348;-59
2021/01/13 08:15:05;;;;;;;32.20;19.67;;;;;;;-2.02;69.58;98543.95;1730476;80;21295;-57
2021/01/13 08:17:44;;;;;;;29.48;19.35;;;;;;;-2.00;69.64;98541.08;1743477;80;21179;-58
2021/01/13 08:20:47;;;;;;;29.35;18.73;;;;;;;-1.97;69.61;98535.30;1753180;80;21158;-58
2021/01/13 08:23:20;;;;;;;33.08;19.67;;;;;;;-1.92;69.42;98532.80;1712241;83;21308;-57
2021/01/13 08:28:40;;;;;;;32.67;18.45;;;;;;;-1.88;69.06;98527.83;1811223;78;23234;-57
2021/01/13 08:31:10;;;;;;;31.07;18.92;;;;;;;-2.16;68.67;98471.00;1771454;80;21294;-58
2021/01/13 08:33:39;;;;;;;30.30;19.40;;;;;;;-1.83;68.41;98527.97;1776578;81;21327;-58
2021/01/13 08:36:12;;;;;;;28.35;18.90;;;;;;;-1.78;68.75;98519.61;1783525;80;21271;-57
2021/01/13 08:41:48;;;;;;;32.78;20.72;;;;;;;-1.63;68.40;98512.58;1758847;79;23526;-57
2021/01/13 08:44:18;;;;;;;35.17;23.05;;;;;;;-1.62;68.35;98515.52;1716574;83;21734;-58
2021/01/13 08:47:01;;;;;;;33.60;21.68;;;;;;;-1.62;67.79;98512.33;1712217;82;21695;-57
2021/01/13 08:49:31;;;;;;;32.75;20.65;;;;;;;-1.58;67.69;98516.70;1718409;83;21293;-59
2021/01/13 08:52:25;;;;;;;32.25;18.62;;;;;;;-1.55;67.81;98516.25;1687809;82;21724;-60
2021/01/13 08:55:11;;;;;;;34.20;20.88;;;;;;;-1.54;67.29;98510.70;1708877;83;21148;-60
2021/01/13 08:58:02;;;;;;;29.63;18.20;;;;;;;-1.58;67.50;98494.02;1715223;82;21291;-58
2021/01/13 09:00:31;;;;;;;35.08;21.50;;;;;;;-1.59;67.84;98491.87;1685647;82;21179;-59
2021/01/13 09:03:14;;;;;;;31.07;19.62;;;;;;;-1.62;67.67;98484.83;1684772;82;21311;-58
2021/01/13 09:05:43;;;;;;;35.83;23.52;;;;;;;-1.68;68.03;98487.89;1728695;81;21291;-59
2021/01/13 09:08:13;;;;;;;32.35;20.08;;;;;;;-1.66;68.19;98476.45;1711537;83;21169;-59
2021/01/13 09:10:51;;;;;;;37.83;22.25;;;;;;;-1.61;68.07;98469.94;1709838;82;21781;-59
2021/01/13 09:13:43;;;;;;;34.50;20.82;;;;;;;-1.58;68.03;98460.14;1720474;83;21161;-59
2021/01/13 09:16:28;;;;;;;32.85;21.10;;;;;;;-1.57;68.29;98460.45;1722354;82;21177;-59
2021/01/13 09:18:58;;;;;;;34.53;21.07;;;;;;;-1.55;68.39;98453.02;1718325;83;21287;-58
2021/01/13 09:21:33;;;;;;;40.67;23.15;;;;;;;-1.49;68.29;98447.84;1694267;83;21164;-60
2021/01/13 09:24:01;;;;;;;38.38;21.30;;;;;;;-1.50;68.31;98445.68;1718549;83;21283;-59
2021/01/13 09:26:36;;;;;;;32.45;20.52;;;;;;;-1.52;68.57;98445.08;1716566;82;21149;-58
2021/01/13 09:29:07;;;;;;;36.83;22.60;;;;;;;-1.53;68.76;98444.80;1739290;82;21385;-58
2021/01/13 09:31:38;;;;;;;35.30;20.88;;;;;;;-1.62;68.97;98442.95;1702939;83;21287;-58
2021/01/13 09:34:07;;;;;;;36.48;19.42;;;;;;;-1.72;69.53;98442.67;1715568;83;21672;-58
2021/01/13 09:36:56;;;;;;;39.55;22.25;;;;;;;-1.75;69.57;98435.64;1720263;82;21685;-59
2021/01/13 09:39:36;;;;;;;38.90;23.18;;;;;;;-1.81;70.10;98437.87;1713326;83;21672;-59
2021/01/13 09:42:05;;;;;;;43.73;25.72;;;;;;;-1.75;70.24;98440.46;1682520;84;21714;-58
2021/01/13 09:44:36;;;;;;;36.75;21.82;;;;;;;-1.72;70.18;98437.86;1678880;84;21302;-58
2021/01/13 09:47:26;;;;;;;35.20;19.35;;;;;;;-1.68;70.39;98433.19;1681307;85;21322;-58
2021/01/13 09:49:56;;;;;;;34.83;20.80;;;;;;;-1.61;70.53;98439.77;1672452;85;21286;-58
2021/01/13 09:52:36;;;;;;;34.35;20.57;;;;;;;-1.55;70.45;98434.34;1683064;84;21317;-58
2021/01/13 09:55:06;;;;;;;32.88;18.75;;;;;;;-1.59;70.76;98433.16;1682858;85;21697;-58
2021/01/13 09:57:34;;;;;;;38.30;22.80;;;;;;;-1.58;71.11;98429.97;1675565;84;21309;-59
2021/01/13 10:00:09;;;;;;;39.27;21.95;;;;;;;-1.62;71.37;98425.61;1685757;84;21172;-58
2021/01/13 10:02:42;;;;;;;31.07;19.25;;;;;;;-1.65;71.85;98424.73;1674493;84;21688;-59
2021/01/13 10:05:13;;;;;;;37.45;22.13;;;;;;;-1.61;71.71;98426.42;1678440;85;21365;-59
2021/01/13 10:07:44;;;;;;;34.00;21.97;;;;;;;-1.57;72.13;98418.27;1643138;86;21181;-59
2021/01/13 10:10:12;;;;;;;40.92;24.32;;;;;;;-1.54;72.32;98411.14;1676349;85;21302;-59
2021/01/13 10:12:45;;;;;;;30.00;18.52;;;;;;;-1.41;72.12;98406.13;1658381;85;21326;-59
2021/01/13 10:15:13;;;;;;;32.45;21.33;;;;;;;-1.38;71.79;98405.70;1685137;85;21370;-58
2021/01/13 10:17:42;;;;;;;37.20;23.15;;;;;;;-1.30;71.30;98396.01;1685727;84;21464;-59
2021/01/13 10:20:17;;;;;;;34.70;20.20;;;;;;;-1.35;71.08;98394.56;1679032;84;21770;-60
2021/01/13 10:22:47;;;;;;;29.63;19.35;;;;;;;-1.44;70.84;98393.23;1618140;87;21131;-58
2021/01/13 10:25:30;;;;;;;33.08;21.57;;;;;;;-1.51;71.15;98385.33;1679227;85;21722;-59
2021/01/13 10:27:59;;;;;;;32.13;19.75;;;;;;;-1.58;71.25;98385.42;1679396;85;21664;-59
2021/01/13 10:30:28;;;;;;;26.85;17.30;;;;;;;-1.56;71.07;98386.00;1635551;85;21705;-58
2021/01/13 10:32:57;;;;;;;26.95;16.27;;;;;;;-1.53;71.06;98385.58;1666157;85;21743;-59
2021/01/13 10:35:36;;;;;;;26.65;18.05;;;;;;;-1.55;71.25;98387.64;1654769;85;21557;-59
2021/01/13 10:38:05;;;;;;;26.68;17.55;;;;;;;-1.51;70.84;98390.66;1680407;85;21587;-60
2021/01/13 10:40:33;;;;;;;26.33;16.95;;;;;;;-1.53;70.32;98380.75;1659515;83;21303;-59
2021/01/13 10:43:01;;;;;;;29.12;16.85;;;;;;;-1.54;70.67;98373.78;1708820;83;21279;-59
2021/01/13 10:45:29;;;;;;;30.05;18.73;;;;;;;-1.56;70.51;98372.66;1679255;82;21168;-59
2021/01/13 10:48:02;;;;;;;20.52;13.28;;;;;;;-1.60;70.48;98368.84;1701229;83;21291;-59
2021/01/13 10:50:32;;;;;;;30.72;18.80;;;;;;;-1.58;70.74;98362.74;1711945;83;21323;-59
2021/01/13 10:53:01;;;;;;;24.77;16.82;;;;;;;-1.58;70.79;98360.08;1670361;83;21747;-59
2021/01/13 10:55:32;;;;;;;27.37;17.35;;;;;;;-1.55;70.53;98348.94;1693283;83;21330;-59
2021/01/13 10:58:01;;;;;;;29.95;17.25;;;;;;;-1.43;70.34;98349.50;1694222;83;21260;-58
2021/01/13 11:00:30;;;;;;;24.23;16.48;;;;;;;-1.42;70.40;98339.13;1664239;83;21714;-59
2021/01/13 11:03:00;;;;;;;27.65;17.27;;;;;;;-1.39;70.42;98334.14;1714397;83;21346;-59
2021/01/13 11:05:30;;;;;;;25.12;15.58;;;;;;;-1.35;70.06;98331.83;1695782;83;21155;-59
2021/01/13 11:07:58;;;;;;;27.05;15.53;;;;;;;-1.45;69.70;98328.91;1628396;85;21133;-58
2021/01/13 11:10:26;;;;;;;28.60;18.40;;;;;;;-1.41;69.29;98326.05;1674565;85;21699;-59
2021/01/13 11:13:02;;;;;;;23.47;15.32;;;;;;;-1.45;69.85;98325.69;1713128;83;21149;-60
2021/01/13 11:17:14;;;;;;;25.15;16.95;;;;;;;-1.37;69.65;98308.02;1750553;79;22957;-58
2021/01/13 11:19:50;;;;;;;28.10;19.62;;;;;;;-1.45;70.02;98308.89;1720110;83;21109;-57
2021/01/13 11:22:20;;;;;;;27.67;15.65;;;;;;;-1.45;69.49;98305.67;1719040;82;21283;-57
2021/01/13 11:24:51;;;;;;;26.65;17.27;;;;;;;-1.45;69.12;98303.55;1672591;84;21351;-57
2021/01/13 11:27:23;;;;;;;28.60;18.45;;;;;;;-1.43;68.98;98300.12;1710275;83;21168;-58
2021/01/13 11:29:53;;;;;;;28.12;17.85;;;;;;;-1.45;68.56;98295.55;1682816;83;21110;-58
2021/01/13 11:35:02;;;;;;;26.25;15.93;;;;;;;-1.43;68.29;98273.42;1818464;79;22861;-58
2021/01/13 11:37:48;;;;;;;23.62;15.98;;;;;;;-1.51;68.51;98286.58;1757542;81;21131;-59
2021/01/13 11:40:37;;;;;;;22.80;14.90;;;;;;;-1.52;68.45;98275.60;1778885;80;21134;-59
2021/01/13 11:43:16;;;;;;;24.80;14.90;;;;;;;-1.58;68.55;98279.20;1758963;80;21660;-59
2021/01/13 11:45:57;;;;;;;23.73;14.60;;;;;;;-1.56;68.59;98277.13;1757939;80;21288;-58
2021/01/13 11:48:30;;;;;;;21.90;14.15;;;;;;;-1.62;68.57;98278.84;1759619;81;21335;-59
2021/01/13 11:51:02;;;;;;;25.90;15.88;;;;;;;-1.64;68.34;98279.61;1759608;81;21218;-59
2021/01/13 11:53:30;;;;;;;22.77;13.35;;;;;;;-1.63;68.44;98272.42;1767172;80;21149;-59
2021/01/13 11:56:05;;;;;;;23.85;15.08;;;;;;;-1.65;68.57;98272.64;1760737;80;21168;-59
2021/01/13 11:58:34;;;;;;;25.72;17.23;;;;;;;-1.60;68.44;98275.44;1731334;80;21300;-58
2021/01/13 12:01:02;;;;;;;22.20;14.53;;;;;;;-1.64;68.45;98270.27;1694956;83;21327;-59
2021/01/13 12:03:29;;;;;;;21.85;15.28;;;;;;;-1.57;68.58;98267.49;1711319;83;21165;-59